createdAt,value
2023-11-24T04:49:04.979Z,7.60
2023-11-24T04:51:32.901Z,7.50
2023-11-24T04:53:59.927Z,7.50
2023-11-24T04:56:26.576Z,7.60
2023-11-24T04:58:53.494Z,7.60
2023-11-24T05:01:20.419Z,7.50
2023-11-24T05:03:50.895Z,7.50
2023-11-24T05:06:17.796Z,7.50
2023-11-24T05:08:48.946Z,7.50
2023-11-24T05:11:16.013Z,7.50
2023-11-24T05:13:42.613Z,7.40
2023-11-24T05:16:09.499Z,7.30
2023-11-24T05:18:36.250Z,7.30
2023-11-24T05:21:03.229Z,7.40
2023-11-24T05:23:29.944Z,7.30
2023-11-24T05:25:56.642Z,7.30
2023-11-24T05:28:23.822Z,7.30
2023-11-24T05:30:50.590Z,7.20
2023-11-24T05:33:17.369Z,7.10
2023-11-24T05:35:44.018Z,7.00
2023-11-24T05:38:10.737Z,7.00
2023-11-24T05:40:37.422Z,6.90
2023-11-24T05:43:04.149Z,7.00
2023-11-24T05:45:31.474Z,6.80
2023-11-24T05:47:58.300Z,6.80
2023-11-24T05:50:25.287Z,6.80
2023-11-24T05:52:52.063Z,6.80
2023-11-24T05:55:19.197Z,6.70
2023-11-24T05:57:46.029Z,6.70
2023-11-24T06:00:19.347Z,6.70
2023-11-24T06:02:46.399Z,6.60
2023-11-24T06:05:13.546Z,6.70
2023-11-24T06:07:41.189Z,6.70
2023-11-24T06:10:11.229Z,6.70
2023-11-24T06:12:38.521Z,6.70
2023-11-24T06:15:06.355Z,6.70
2023-11-24T06:17:33.398Z,6.70
2023-11-24T06:20:00.370Z,6.80
2023-11-24T06:22:27.119Z,6.80
2023-11-24T06:24:55.050Z,6.80
2023-11-24T06:27:21.953Z,6.80
2023-11-24T06:29:49.081Z,6.90
2023-11-24T06:32:15.863Z,6.80
2023-11-24T06:34:43.150Z,6.80
2023-11-24T06:37:10.200Z,6.80
2023-11-24T06:39:39.644Z,6.80
2023-11-24T06:42:06.448Z,7.00
2023-11-24T06:44:33.127Z,7.00
2023-11-24T06:47:02.252Z,7.00
2023-11-24T06:49:30.702Z,7.10
2023-11-24T06:51:57.972Z,7.00
2023-11-24T06:54:24.827Z,7.00
2023-11-24T06:56:51.599Z,6.90
2023-11-24T06:59:18.647Z,6.80
2023-11-24T07:01:45.796Z,6.90
2023-11-24T07:04:12.772Z,6.90
2023-11-24T07:06:39.607Z,6.90
2023-11-24T07:09:06.367Z,6.90
2023-11-24T07:11:33.093Z,6.90
2023-11-24T07:13:59.816Z,6.90
2023-11-24T07:16:27.142Z,6.70
2023-11-24T07:18:54.209Z,6.70
2023-11-24T07:21:21.772Z,6.60
2023-11-24T07:23:48.691Z,6.80
2023-11-24T07:26:19.193Z,6.90
2023-11-24T07:28:46.096Z,6.90
2023-11-24T07:31:18.305Z,6.80
2023-11-24T07:33:49.807Z,6.70
2023-11-24T07:36:17.587Z,6.80
2023-11-24T07:38:44.332Z,6.90
2023-11-24T07:41:11.790Z,7.00
2023-11-24T07:43:38.698Z,7.20
2023-11-24T07:46:08.347Z,7.20
2023-11-24T07:48:35.247Z,7.10
2023-11-24T07:51:02.443Z,7.20
2023-11-24T07:53:29.253Z,7.20
2023-11-24T07:55:56.015Z,7.10
2023-11-24T07:58:23.263Z,7.10
2023-11-24T08:00:49.970Z,7.10
2023-11-24T08:03:18.299Z,7.00
2023-11-24T08:05:45.354Z,7.00
2023-11-24T08:08:12.081Z,6.90
2023-11-24T08:10:38.874Z,7.00
2023-11-24T08:13:05.677Z,7.10
2023-11-24T08:15:32.438Z,7.20
2023-11-24T08:18:00.541Z,7.30
2023-11-24T08:20:27.500Z,7.40
2023-11-24T08:22:54.152Z,7.40
2023-11-24T08:25:20.883Z,7.40
2023-11-24T08:27:48.116Z,7.40
2023-11-24T08:30:15.248Z,7.20
2023-11-24T08:32:45.593Z,7.30
2023-11-24T08:35:13.073Z,7.40
2023-11-24T08:37:39.941Z,7.50
2023-11-24T08:40:11.990Z,7.70
2023-11-24T08:42:39.812Z,8.10
2023-11-24T08:45:07.933Z,8.60
2023-11-24T08:47:34.720Z,8.40
2023-11-24T08:50:01.643Z,8.00
2023-11-24T08:52:28.466Z,7.70
2023-11-24T08:54:55.711Z,7.60
2023-11-24T08:57:22.490Z,7.60
2023-11-24T08:59:49.215Z,7.60
2023-11-24T09:02:16.050Z,7.60
2023-11-24T09:04:43.072Z,7.80
2023-11-24T09:07:10.239Z,8.00
2023-11-24T09:09:38.265Z,8.20
2023-11-24T09:12:07.067Z,8.70
2023-11-24T09:14:39.442Z,9.50
2023-11-24T09:17:06.488Z,10.30
2023-11-24T09:19:33.482Z,10.90
2023-11-24T09:22:05.207Z,10.20
2023-11-24T09:24:32.005Z,10.10
2023-11-24T09:26:58.868Z,9.50
2023-11-24T09:29:27.068Z,8.80
2023-11-24T09:31:53.898Z,8.50
2023-11-24T09:34:21.397Z,8.30
2023-11-24T09:36:48.769Z,8.30
2023-11-24T09:39:18.363Z,8.40
2023-11-24T09:41:50.276Z,8.40
2023-11-24T09:44:17.081Z,8.40
2023-11-24T09:46:51.864Z,8.30
2023-11-24T09:49:21.554Z,8.20
2023-11-24T09:51:48.884Z,8.30
2023-11-24T09:54:18.619Z,8.40
2023-11-24T09:56:45.563Z,8.30
2023-11-24T09:59:13.738Z,8.30
2023-11-24T10:01:41.240Z,8.20
2023-11-24T10:04:08.063Z,8.20
2023-11-24T10:06:38.341Z,8.10
2023-11-24T10:09:06.781Z,8.20
2023-11-24T10:11:36.792Z,8.20
2023-11-24T10:14:05.692Z,8.30
2023-11-24T10:16:32.784Z,8.50
2023-11-24T10:19:01.830Z,8.40
2023-11-24T10:21:33.128Z,8.50
2023-11-24T10:24:02.374Z,8.50
2023-11-24T10:26:29.404Z,8.50
2023-11-24T10:28:57.362Z,8.40
2023-11-24T10:31:24.268Z,8.30
2023-11-24T10:33:52.191Z,8.40
2023-11-24T10:36:21.487Z,8.50
2023-11-24T10:38:48.391Z,8.70
2023-11-24T10:41:24.463Z,8.80
2023-11-24T10:43:52.516Z,8.70
2023-11-24T10:46:22.156Z,8.50
2023-11-24T10:48:53.923Z,8.60
2023-11-24T10:51:25.872Z,8.60
2023-11-24T10:53:57.913Z,8.60
2023-11-24T10:56:27.490Z,8.60
2023-11-24T10:58:57.312Z,8.60
2023-11-24T11:01:27.507Z,8.90
2023-11-24T11:04:00.249Z,8.80
2023-11-24T11:06:33.001Z,8.60
2023-11-24T11:09:19.758Z,8.60
2023-11-24T11:11:58.388Z,8.50
2023-11-24T11:14:25.408Z,8.40
2023-11-24T11:16:53.552Z,8.40
2023-11-24T11:19:32.534Z,8.50
2023-11-24T11:22:03.456Z,8.30
2023-11-24T11:24:30.411Z,8.20
2023-11-24T11:26:58.991Z,8.20
2023-11-24T11:29:28.898Z,8.20
2023-11-24T11:31:59.456Z,8.30
2023-11-24T11:34:32.194Z,8.30
2023-11-24T11:37:12.691Z,8.30
2023-11-24T11:39:55.106Z,8.20
2023-11-24T11:42:33.106Z,8.20
2023-11-24T11:45:11.434Z,8.50
2023-11-24T11:47:52.653Z,8.70
2023-11-24T11:50:25.722Z,8.60
2023-11-24T11:52:55.779Z,8.20
2023-11-24T11:55:25.216Z,8.10
2023-11-24T11:57:56.652Z,8.10
2023-11-24T12:00:30.685Z,7.90
2023-11-24T12:02:59.114Z,7.90
2023-11-24T12:05:29.280Z,7.90
2023-11-24T12:07:59.373Z,7.80
2023-11-24T12:10:30.630Z,7.90
2023-11-24T12:12:59.828Z,8.10
2023-11-24T12:15:26.860Z,8.00
2023-11-24T12:17:55.039Z,8.00
2023-11-24T12:20:23.442Z,8.00
2023-11-24T12:22:52.093Z,8.00
2023-11-24T12:25:19.365Z,8.00
2023-11-24T12:27:46.637Z,8.00
2023-11-24T12:30:14.239Z,8.00
2023-11-24T12:32:45.801Z,8.00
2023-11-24T12:35:12.771Z,8.10
2023-11-24T12:37:41.801Z,8.30
2023-11-24T12:40:13.009Z,8.20
2023-11-24T12:42:42.099Z,8.30
2023-11-24T12:45:09.927Z,8.30
2023-11-24T12:50:12.171Z,8.30
2023-11-24T12:52:40.633Z,8.40
2023-11-24T12:57:36.195Z,8.70
2023-11-24T13:00:10.701Z,9.10
2023-11-24T13:02:39.087Z,9.50
2023-11-24T13:05:08.904Z,9.10
2023-11-24T13:07:36.957Z,8.90
2023-11-24T13:10:07.598Z,8.90
2023-11-24T13:12:37.829Z,9.10
2023-11-24T13:15:08.517Z,9.20
2023-11-24T13:17:35.692Z,9.10
2023-11-24T13:20:02.759Z,8.90
2023-11-24T13:22:29.546Z,8.50
2023-11-24T13:24:56.319Z,8.10
2023-11-24T13:27:23.463Z,7.70
2023-11-24T13:29:50.263Z,7.70
2023-11-24T13:32:17.810Z,7.70
2023-11-24T13:34:44.779Z,7.70
2023-11-24T13:37:14.406Z,7.80
2023-11-24T13:39:41.167Z,7.80
2023-11-24T13:42:08.340Z,8.10
2023-11-24T13:44:35.968Z,8.00
2023-11-24T13:47:03.462Z,8.00
2023-11-24T13:49:30.321Z,8.10
2023-11-24T13:51:57.108Z,8.00
2023-11-24T13:54:26.610Z,8.00
2023-11-24T13:56:54.721Z,7.90
2023-11-24T13:59:21.950Z,7.80
2023-11-24T14:01:50.405Z,8.00
2023-11-24T14:04:17.810Z,8.30
2023-11-24T14:06:50.074Z,8.60
2023-11-24T14:09:37.735Z,8.30
2023-11-24T14:12:04.998Z,8.10
2023-11-24T14:14:31.803Z,8.20
2023-11-24T14:17:00.008Z,7.90
2023-11-24T14:19:26.929Z,7.70
2023-11-24T14:21:56.910Z,7.80
2023-11-24T14:24:24.396Z,7.60
2023-11-24T14:26:51.341Z,7.60
2023-11-24T14:29:19.125Z,7.50
2023-11-24T14:31:47.932Z,7.50
2023-11-24T14:34:19.168Z,7.40
2023-11-24T14:36:46.752Z,7.30
2023-11-24T14:39:32.874Z,7.00
2023-11-24T14:42:00.525Z,6.90
2023-11-24T14:44:27.617Z,6.70
2023-11-24T14:46:54.638Z,6.70
2023-11-24T14:49:21.713Z,6.70
2023-11-24T14:51:49.763Z,6.60
2023-11-24T14:54:17.825Z,6.50
2023-11-24T14:56:46.525Z,6.40
2023-11-24T14:59:13.454Z,6.40
2023-11-24T15:01:40.970Z,6.40
2023-11-24T15:04:17.701Z,6.40
2023-11-24T15:06:51.210Z,6.30
2023-11-24T15:09:19.582Z,6.30
2023-11-24T15:11:48.898Z,6.20
2023-11-24T15:14:16.219Z,6.20
2023-11-24T15:16:58.612Z,6.10
2023-11-24T15:19:29.089Z,6.00
2023-11-24T15:21:57.274Z,6.00
2023-11-24T15:24:24.391Z,6.10
2023-11-24T15:26:53.191Z,6.00
2023-11-24T15:29:20.158Z,5.90
2023-11-24T15:31:47.304Z,5.80
2023-11-24T15:34:14.818Z,5.80
2023-11-24T15:36:42.105Z,5.90
2023-11-24T15:39:34.144Z,5.90
2023-11-24T15:42:01.802Z,5.90
2023-11-24T15:44:30.818Z,5.90
2023-11-24T15:46:57.875Z,5.80
2023-11-24T15:49:25.130Z,5.90
2023-11-24T15:51:55.107Z,5.80
2023-11-24T15:54:22.089Z,5.90
2023-11-24T15:56:50.061Z,5.90
2023-11-24T15:59:24.099Z,6.00
2023-11-24T16:01:58.428Z,6.00
2023-11-24T16:04:25.664Z,6.10
2023-11-24T16:06:56.228Z,6.10
2023-11-24T16:09:26.660Z,6.10
2023-11-24T16:12:15.852Z,6.10
2023-11-24T16:14:50.094Z,6.10
2023-11-24T16:17:16.882Z,6.10
2023-11-24T16:19:43.637Z,6.20
2023-11-24T16:22:15.762Z,6.10
2023-11-24T16:24:43.525Z,5.90
2023-11-24T16:27:10.662Z,5.80
2023-11-24T16:29:37.352Z,5.80
2023-11-24T16:32:04.991Z,6.00
2023-11-24T16:34:31.891Z,5.80
2023-11-24T16:36:59.081Z,5.70
2023-11-24T16:39:28.501Z,5.30
2023-11-24T16:41:55.845Z,5.20
2023-11-24T16:44:23.745Z,5.00
2023-11-24T16:46:58.913Z,4.70
2023-11-24T16:49:26.208Z,4.50
2023-11-24T16:51:54.084Z,4.50
2023-11-24T16:54:20.993Z,4.50
2023-11-24T16:56:48.272Z,4.50
2023-11-24T16:59:18.670Z,4.60
2023-11-24T17:01:45.788Z,4.60
2023-11-24T17:04:12.579Z,4.60
2023-11-24T17:06:39.580Z,4.50
2023-11-24T17:09:12.276Z,4.70
2023-11-24T17:11:41.786Z,4.70
2023-11-24T17:14:11.286Z,4.70
2023-11-24T17:16:38.101Z,4.70
2023-11-24T17:19:05.105Z,4.80
2023-11-24T17:21:31.920Z,4.80
2023-11-24T17:23:58.775Z,4.90
2023-11-24T17:26:27.150Z,4.90
2023-11-24T17:28:54.549Z,5.10
2023-11-24T17:31:24.706Z,5.20
2023-11-24T17:33:53.065Z,5.20
2023-11-24T17:36:23.696Z,5.00
2023-11-24T17:38:50.836Z,4.90
2023-11-24T17:41:17.720Z,4.90
2023-11-24T17:43:44.537Z,5.10
2023-11-24T17:46:12.744Z,5.20
2023-11-24T17:48:39.932Z,5.20
2023-11-24T17:51:07.069Z,5.30
2023-11-24T17:53:34.124Z,5.20
2023-11-24T17:56:00.899Z,5.10
2023-11-24T17:58:28.197Z,5.20
2023-11-24T18:00:58.834Z,5.10
2023-11-24T18:03:25.637Z,5.00
2023-11-24T18:05:52.453Z,5.00
2023-11-24T18:08:22.914Z,5.00
2023-11-24T18:10:50.512Z,5.10
2023-11-24T18:13:17.934Z,5.10
2023-11-24T18:15:45.134Z,5.30
2023-11-24T18:18:12.672Z,5.30
2023-11-24T18:20:39.737Z,5.30
2023-11-24T18:23:06.535Z,5.30
2023-11-24T18:25:36.317Z,5.30
2023-11-24T18:28:04.040Z,5.40
2023-11-24T18:30:30.877Z,5.30
2023-11-24T18:32:58.369Z,5.00
2023-11-24T18:35:25.211Z,4.80
2023-11-24T18:37:52.525Z,4.80
2023-11-24T18:40:19.560Z,4.80
2023-11-24T18:42:49.142Z,4.80
2023-11-24T18:45:20.077Z,4.70
2023-11-24T18:47:47.310Z,4.60
2023-11-24T18:50:14.680Z,4.60
2023-11-24T18:52:41.615Z,4.70
2023-11-24T18:55:08.412Z,4.60
2023-11-24T18:57:38.095Z,4.90
2023-11-24T19:00:06.075Z,4.80
2023-11-24T19:02:34.227Z,5.00
2023-11-24T19:05:01.504Z,5.00
2023-11-24T19:07:28.359Z,5.00
2023-11-24T19:09:57.878Z,5.10
2023-11-24T19:12:24.839Z,5.10
2023-11-24T19:14:51.509Z,5.10
2023-11-24T19:17:18.509Z,5.10
2023-11-24T19:19:49.947Z,5.10
2023-11-24T19:22:16.877Z,4.70
2023-11-24T19:24:43.603Z,4.60
2023-11-24T19:27:10.350Z,4.60
2023-11-24T19:29:37.135Z,4.70
2023-11-24T19:32:04.688Z,4.70
2023-11-24T19:34:31.566Z,4.70
2023-11-24T19:36:58.484Z,4.70
2023-11-24T19:39:25.607Z,4.60
2023-11-24T19:41:52.288Z,4.60
2023-11-24T19:44:20.083Z,4.50
2023-11-24T19:46:46.991Z,4.40
2023-11-24T19:49:13.755Z,4.50
2023-11-24T19:51:40.973Z,4.50
2023-11-24T19:54:09.214Z,4.30
2023-11-24T19:56:35.950Z,4.10
2023-11-24T19:59:02.968Z,4.20
2023-11-24T20:01:31.408Z,4.00
2023-11-24T20:03:58.625Z,4.10
2023-11-24T20:06:25.422Z,4.20
2023-11-24T20:08:52.163Z,4.20
2023-11-24T20:11:18.911Z,4.20
2023-11-24T20:13:45.629Z,4.30
2023-11-24T20:16:12.557Z,4.20
2023-11-24T20:18:43.752Z,4.20
2023-11-24T20:21:10.484Z,4.30
2023-11-24T20:23:37.206Z,4.20
2023-11-24T20:26:04.922Z,4.10
2023-11-24T20:28:31.727Z,4.10
2023-11-24T20:30:58.498Z,4.20
2023-11-24T20:33:25.213Z,4.20
2023-11-24T20:35:52.186Z,4.20
2023-11-24T20:38:19.039Z,4.20
2023-11-24T20:40:45.771Z,4.10
2023-11-24T20:43:12.637Z,4.20
2023-11-24T20:45:39.377Z,4.20
2023-11-24T20:48:06.131Z,4.20
2023-11-24T20:50:32.939Z,4.20
2023-11-24T20:52:59.618Z,4.10
2023-11-24T20:55:27.722Z,4.20
2023-11-24T20:57:55.139Z,4.20
2023-11-24T21:00:23.699Z,4.20
2023-11-24T21:02:50.719Z,4.20
2023-11-24T21:05:17.635Z,4.30
2023-11-24T21:07:44.364Z,4.30
2023-11-24T21:10:12.693Z,4.30
2023-11-24T21:12:42.874Z,4.20
2023-11-24T21:15:11.416Z,4.40
2023-11-24T21:17:38.624Z,4.30
2023-11-24T21:20:06.875Z,4.30
2023-11-24T21:22:34.839Z,4.30
2023-11-24T21:25:02.670Z,4.40
2023-11-24T21:27:29.534Z,4.40
2023-11-24T21:29:56.494Z,4.30
2023-11-24T21:32:23.375Z,4.30
2023-11-24T21:34:50.147Z,4.20
2023-11-24T21:37:17.877Z,3.90
2023-11-24T21:39:47.670Z,3.70
2023-11-24T21:42:14.448Z,3.60
2023-11-24T21:44:46.096Z,3.60
2023-11-24T21:47:13.132Z,3.50
2023-11-24T21:49:40.957Z,3.50
2023-11-24T21:52:07.760Z,3.60
2023-11-24T21:54:34.469Z,3.50
2023-11-24T21:57:01.617Z,3.40
2023-11-24T21:59:28.403Z,3.40
2023-11-24T22:01:58.092Z,3.60
2023-11-24T22:04:25.243Z,3.60
2023-11-24T22:06:52.074Z,3.50
2023-11-24T22:09:20.570Z,3.50
2023-11-24T22:11:47.944Z,3.50
2023-11-24T22:14:15.196Z,3.50
2023-11-24T22:16:44.600Z,3.50
2023-11-24T22:19:12.305Z,3.70
2023-11-24T22:21:39.391Z,3.50
2023-11-24T22:24:07.955Z,3.50
2023-11-24T22:26:35.523Z,3.30
2023-11-24T22:29:04.115Z,3.20
2023-11-24T22:31:31.070Z,3.30
2023-11-24T22:33:57.911Z,3.30
2023-11-24T22:36:24.658Z,3.20
2023-11-24T22:38:51.616Z,3.20
2023-11-24T22:41:19.540Z,3.30
2023-11-24T22:43:46.727Z,3.30
2023-11-24T22:46:20.736Z,3.50
2023-11-24T22:48:48.440Z,3.40
2023-11-24T22:51:27.116Z,3.10
2023-11-24T22:53:54.394Z,3.10
2023-11-24T22:56:26.670Z,3.20
2023-11-24T22:58:59.760Z,3.20
2023-11-24T23:01:28.504Z,3.10
2023-11-24T23:04:00.847Z,3.10
2023-11-24T23:06:31.747Z,3.00
2023-11-24T23:08:58.801Z,3.10
2023-11-24T23:11:28.523Z,3.10
2023-11-24T23:13:55.338Z,3.10
2023-11-24T23:16:26.871Z,3.00
2023-11-24T23:18:53.961Z,3.00
2023-11-24T23:21:23.978Z,2.90
2023-11-24T23:23:52.074Z,2.80
2023-11-24T23:26:19.430Z,2.70
2023-11-24T23:28:48.988Z,2.60
2023-11-24T23:31:16.691Z,2.60
2023-11-24T23:33:44.486Z,2.50
2023-11-24T23:36:13.631Z,2.40
2023-11-24T23:38:44.871Z,2.30
2023-11-24T23:41:12.348Z,2.40
2023-11-24T23:43:39.597Z,2.30
2023-11-24T23:46:07.067Z,2.30
2023-11-24T23:48:34.394Z,2.20
2023-11-24T23:51:01.317Z,2.30
2023-11-24T23:53:29.254Z,2.30
2023-11-24T23:55:57.323Z,2.30
2023-11-24T23:58:26.273Z,2.30
